createdAt,value
2019-05-21T00:01:25.529Z,14.50
2019-05-21T00:03:51.674Z,14.54
2019-05-21T00:06:17.869Z,14.57
2019-05-21T00:08:44.144Z,14.55
2019-05-21T00:11:11.752Z,14.58
2019-05-21T00:13:38.009Z,14.50
2019-05-21T00:16:04.231Z,14.48
2019-05-21T00:18:30.370Z,14.41
2019-05-21T00:20:56.476Z,14.44
2019-05-21T00:23:22.749Z,14.47
2019-05-21T00:25:49.083Z,14.43
2019-05-21T00:28:28.043Z,14.47
2019-05-21T00:31:31.785Z,14.36
2019-05-21T00:34:43.849Z,14.38
2019-05-21T00:37:41.328Z,14.38
2019-05-21T00:40:45.318Z,14.22
2019-05-21T00:43:11.678Z,14.18
2019-05-21T00:45:38.012Z,14.15
2019-05-21T00:48:05.845Z,14.10
2019-05-21T00:50:32.418Z,14.16
2019-05-21T00:52:58.560Z,14.12
2019-05-21T00:55:24.784Z,14.15
2019-05-21T00:57:50.982Z,14.15
2019-05-21T01:00:17.362Z,14.13
2019-05-21T01:02:43.457Z,14.12
2019-05-21T01:05:09.706Z,14.18
2019-05-21T01:07:35.854Z,14.23
2019-05-21T01:10:06.293Z,14.14
2019-05-21T01:12:32.767Z,14.13
2019-05-21T01:14:59.063Z,14.07
2019-05-21T01:17:25.183Z,14.09
2019-05-21T01:19:51.526Z,14.07
2019-05-21T01:22:17.650Z,14.12
2019-05-21T01:24:43.831Z,14.13
2019-05-21T01:27:10.050Z,13.99
2019-05-21T01:29:36.235Z,13.94
2019-05-21T01:32:02.698Z,13.93
2019-05-21T01:34:29.154Z,13.89
2019-05-21T01:36:55.246Z,13.91
2019-05-21T01:39:22.192Z,13.87
2019-05-21T01:41:48.447Z,13.90
2019-05-21T01:44:14.660Z,13.91
2019-05-21T01:46:40.757Z,13.89
2019-05-21T01:49:08.117Z,13.81
2019-05-21T01:51:34.435Z,13.82
2019-05-21T01:54:00.548Z,13.85
2019-05-21T01:56:26.811Z,13.87
2019-05-21T01:58:53.057Z,13.79
2019-05-21T02:01:19.211Z,13.81
2019-05-21T02:03:45.401Z,13.78
2019-05-21T02:06:11.622Z,13.81
2019-05-21T02:08:37.918Z,13.82
2019-05-21T02:11:04.166Z,13.70
2019-05-21T02:13:30.490Z,13.68
2019-05-21T02:15:56.636Z,13.76
2019-05-21T02:18:22.791Z,13.76
2019-05-21T02:20:49.184Z,13.59
2019-05-21T02:23:16.423Z,13.62
2019-05-21T02:25:42.648Z,13.62
2019-05-21T02:28:09.122Z,13.56
2019-05-21T02:30:35.867Z,13.59
2019-05-21T02:33:02.105Z,13.60
2019-05-21T02:35:28.334Z,13.60
2019-05-21T02:37:54.620Z,13.54
2019-05-21T02:40:21.067Z,13.60
2019-05-21T02:42:47.345Z,13.60
2019-05-21T02:45:14.238Z,13.56
2019-05-21T02:47:40.435Z,13.60
2019-05-21T02:50:07.041Z,13.57
2019-05-21T02:52:33.269Z,13.59
2019-05-21T02:54:59.409Z,13.57
2019-05-21T02:57:41.223Z,13.59
2019-05-21T03:00:30.856Z,13.57
2019-05-21T03:02:58.720Z,13.51
2019-05-21T03:05:24.933Z,13.51
2019-05-21T03:07:51.161Z,13.47
2019-05-21T03:10:17.577Z,13.50
2019-05-21T03:12:43.903Z,13.54
2019-05-21T03:15:10.247Z,13.45
2019-05-21T03:17:36.454Z,13.49
2019-05-21T03:20:09.073Z,13.50
2019-05-21T03:22:35.285Z,13.56
2019-05-21T03:25:02.687Z,13.53
2019-05-21T03:27:29.346Z,13.50
2019-05-21T03:29:55.487Z,13.53
2019-05-21T03:32:21.809Z,13.54
2019-05-21T03:34:49.070Z,13.52
2019-05-21T03:37:15.301Z,13.50
2019-05-21T03:39:41.519Z,13.48
2019-05-21T03:42:07.744Z,13.49
2019-05-21T03:44:33.874Z,13.35
2019-05-21T03:47:00.266Z,13.36
2019-05-21T03:49:26.521Z,13.37
2019-05-21T03:51:52.961Z,13.39
2019-05-21T03:54:19.061Z,13.41
2019-05-21T03:56:45.284Z,13.29
2019-05-21T03:59:11.539Z,13.33
2019-05-21T04:01:37.806Z,13.38
2019-05-21T04:04:04.127Z,13.36
2019-05-21T04:06:30.239Z,13.37
2019-05-21T04:08:56.465Z,13.40
2019-05-21T04:11:22.735Z,13.32
2019-05-21T04:13:48.971Z,13.24
2019-05-21T04:16:26.349Z,13.21
2019-05-21T04:18:57.153Z,13.15
2019-05-21T04:21:24.597Z,13.12
2019-05-21T04:23:50.711Z,13.13
2019-05-21T04:26:16.864Z,13.17
2019-05-21T04:28:42.978Z,13.15
2019-05-21T04:31:09.103Z,13.18
2019-05-21T04:33:35.309Z,13.23
2019-05-21T04:36:01.577Z,13.18
2019-05-21T04:38:27.826Z,13.17
2019-05-21T04:40:53.982Z,13.20
2019-05-21T04:43:20.233Z,13.14
2019-05-21T04:45:46.473Z,13.24
2019-05-21T04:48:12.694Z,13.27
2019-05-21T04:50:39.010Z,13.31
2019-05-21T04:53:05.371Z,13.35
2019-05-21T04:55:31.593Z,13.34
2019-05-21T04:57:57.862Z,13.32
2019-05-21T05:00:24.219Z,13.34
2019-05-21T05:02:50.405Z,13.28
2019-05-21T05:05:16.729Z,13.35
2019-05-21T05:07:43.155Z,13.32
2019-05-21T05:10:09.688Z,13.31
2019-05-21T05:12:35.927Z,13.26
2019-05-21T05:15:04.572Z,13.28
2019-05-21T05:17:30.833Z,13.28
2019-05-21T05:19:57.191Z,13.31
2019-05-21T05:22:23.297Z,13.33
2019-05-21T05:24:49.517Z,13.38
2019-05-21T05:27:15.938Z,13.38
2019-05-21T05:29:42.073Z,13.35
2019-05-21T05:32:08.424Z,13.41
2019-05-21T05:34:34.535Z,13.32
2019-05-21T05:37:01.019Z,13.27
2019-05-21T05:39:27.171Z,13.32
2019-05-21T05:41:53.389Z,13.28
2019-05-21T05:44:19.671Z,13.32
2019-05-21T05:46:45.913Z,13.32
2019-05-21T05:49:16.697Z,13.28
2019-05-21T05:51:42.832Z,13.34
2019-05-21T05:54:09.061Z,13.33
2019-05-21T05:56:35.176Z,13.40
2019-05-21T05:59:01.471Z,13.36
2019-05-21T06:01:29.479Z,13.33
2019-05-21T06:03:55.580Z,13.42
2019-05-21T06:06:21.797Z,13.40
2019-05-21T06:08:48.712Z,13.46
2019-05-21T06:11:14.955Z,13.44
2019-05-21T06:13:41.188Z,13.48
2019-05-21T06:16:07.434Z,13.57
2019-05-21T06:18:35.645Z,13.48
2019-05-21T06:21:01.719Z,13.50
2019-05-21T06:23:28.053Z,13.44
2019-05-21T06:25:54.382Z,13.51
2019-05-21T06:28:20.798Z,13.55
2019-05-21T06:30:47.137Z,13.55
2019-05-21T06:33:13.474Z,13.65
2019-05-21T06:35:40.309Z,13.70
2019-05-21T06:38:17.096Z,13.64
2019-05-21T06:40:38.204Z,13.62
2019-05-21T06:43:02.924Z,13.68
2019-05-21T06:45:29.188Z,13.63
2019-05-21T06:47:55.315Z,13.63
2019-05-21T06:50:21.652Z,13.70
2019-05-21T06:52:47.919Z,13.75
2019-05-21T06:55:14.225Z,13.83
2019-05-21T06:57:40.376Z,13.82
2019-05-21T07:00:07.724Z,13.81
2019-05-21T07:02:34.045Z,13.94
2019-05-21T07:05:00.317Z,13.90
2019-05-21T07:07:26.577Z,13.95
2019-05-21T07:09:52.828Z,13.87
2019-05-21T07:12:19.092Z,13.80
2019-05-21T07:14:45.370Z,13.87
2019-05-21T07:17:11.617Z,13.86
2019-05-21T07:19:37.866Z,13.90
2019-05-21T07:22:12.663Z,13.88
2019-05-21T07:24:32.114Z,13.82
2019-05-21T07:26:58.541Z,13.86
2019-05-21T07:29:24.706Z,13.89
2019-05-21T07:31:51.066Z,14.00
2019-05-21T07:34:17.394Z,14.01
2019-05-21T07:36:43.722Z,13.97
2019-05-21T07:39:10.098Z,14.01
2019-05-21T07:41:36.323Z,13.97
2019-05-21T07:44:02.667Z,14.02
2019-05-21T07:46:28.861Z,14.04
2019-05-21T07:48:55.269Z,13.89
2019-05-21T07:51:21.555Z,13.92
2019-05-21T07:53:47.732Z,13.98
2019-05-21T07:56:14.054Z,14.04
2019-05-21T07:58:40.514Z,14.03
2019-05-21T08:01:06.846Z,14.09
2019-05-21T08:03:33.795Z,14.07
2019-05-21T08:06:00.019Z,14.11
2019-05-21T08:08:26.479Z,14.05
2019-05-21T08:10:53.063Z,14.03
2019-05-21T08:13:19.519Z,14.00
2019-05-21T08:15:46.970Z,14.05
2019-05-21T08:18:13.106Z,13.82
2019-05-21T08:20:39.371Z,13.87
2019-05-21T08:23:05.597Z,13.92
2019-05-21T08:25:32.287Z,14.03
2019-05-21T08:27:58.619Z,13.97
2019-05-21T08:30:25.054Z,13.98
2019-05-21T08:32:51.185Z,13.80
2019-05-21T08:35:17.563Z,13.91
2019-05-21T08:37:43.911Z,13.94
2019-05-21T08:40:10.708Z,13.98
2019-05-21T08:42:36.840Z,13.77
2019-05-21T08:45:08.692Z,13.84
2019-05-21T08:47:35.226Z,13.81
2019-05-21T08:50:04.055Z,13.93
2019-05-21T08:52:30.408Z,14.01
2019-05-21T08:54:56.793Z,14.00
2019-05-21T08:57:23.516Z,13.88
2019-05-21T08:59:49.807Z,13.84
2019-05-21T09:02:16.152Z,13.75
2019-05-21T09:04:48.050Z,13.59
2019-05-21T09:07:10.600Z,13.64
2019-05-21T09:09:49.189Z,13.70
2019-05-21T09:12:05.733Z,13.79
2019-05-21T09:14:32.276Z,13.81
2019-05-21T09:16:58.639Z,13.65
2019-05-21T09:19:24.777Z,13.69
2019-05-21T09:21:50.994Z,13.61
2019-05-21T09:24:17.304Z,13.59
2019-05-21T09:26:43.549Z,13.62
2019-05-21T09:29:09.895Z,13.60
2019-05-21T09:31:36.455Z,13.59
2019-05-21T09:34:05.728Z,13.60
2019-05-21T09:36:32.148Z,13.62
2019-05-21T09:38:58.535Z,13.60
2019-05-21T09:41:24.892Z,13.59
2019-05-21T09:43:51.142Z,13.58
2019-05-21T09:46:17.378Z,13.59
2019-05-21T09:48:43.649Z,13.47
2019-05-21T09:51:09.877Z,13.45
2019-05-21T09:53:36.014Z,13.49
2019-05-21T09:56:04.349Z,13.42
2019-05-21T09:58:35.321Z,13.53
2019-05-21T10:01:15.369Z,13.52
2019-05-21T10:03:43.687Z,13.56
2019-05-21T10:06:10.388Z,13.54
2019-05-21T10:08:37.367Z,13.48
2019-05-21T10:11:04.624Z,13.50
2019-05-21T10:13:30.962Z,13.46
2019-05-21T10:16:01.260Z,13.46
2019-05-21T10:18:25.386Z,13.46
2019-05-21T10:20:51.763Z,13.46
2019-05-21T10:23:18.019Z,13.44
2019-05-21T10:25:44.388Z,13.44
2019-05-21T10:28:10.777Z,13.48
2019-05-21T10:30:37.119Z,13.48
2019-05-21T10:33:03.512Z,13.42
2019-05-21T10:35:29.914Z,13.38
2019-05-21T10:37:56.121Z,13.36
2019-05-21T10:40:22.701Z,13.39
2019-05-21T10:42:48.859Z,13.41
2019-05-21T10:45:15.596Z,13.51
2019-05-21T10:47:42.017Z,13.37
2019-05-21T10:50:09.666Z,13.32
2019-05-21T10:52:35.939Z,13.25
2019-05-21T10:55:04.090Z,13.19
2019-05-21T10:57:30.560Z,13.21
2019-05-21T10:59:56.699Z,13.17
2019-05-21T11:02:24.748Z,13.17
2019-05-21T11:04:53.093Z,13.27
2019-05-21T11:07:19.658Z,13.13
2019-05-21T11:09:46.038Z,13.22
2019-05-21T11:12:12.368Z,13.28
2019-05-21T11:14:38.691Z,13.25
2019-05-21T11:17:06.939Z,13.27
2019-05-21T11:19:33.309Z,13.36
2019-05-21T11:21:59.671Z,13.35
2019-05-21T11:24:25.994Z,13.33
2019-05-21T11:26:52.330Z,13.23
2019-05-21T11:29:18.551Z,13.14
2019-05-21T11:31:56.340Z,13.22
2019-05-21T11:34:13.038Z,13.23
2019-05-21T11:36:39.256Z,13.26
2019-05-21T11:39:06.957Z,13.15
2019-05-21T11:41:33.058Z,13.23
2019-05-21T11:43:59.314Z,13.25
2019-05-21T11:46:25.558Z,13.35
2019-05-21T11:48:51.685Z,13.25
2019-05-21T11:51:17.927Z,13.29
2019-05-21T11:53:44.288Z,13.29
2019-05-21T11:56:10.595Z,13.23
2019-05-21T11:58:39.812Z,13.30
2019-05-21T12:01:05.297Z,13.34
2019-05-21T12:03:31.453Z,13.22
2019-05-21T12:05:57.753Z,13.22
2019-05-21T12:08:24.027Z,13.35
2019-05-21T12:10:50.263Z,13.33
2019-05-21T12:13:20.580Z,13.27
2019-05-21T12:15:46.785Z,13.23
2019-05-21T12:18:13.253Z,13.15
2019-05-21T12:20:39.499Z,13.14
2019-05-21T12:23:06.012Z,13.18
2019-05-21T12:25:32.201Z,13.20
2019-05-21T12:27:58.354Z,13.09
2019-05-21T12:30:24.729Z,13.10
2019-05-21T12:32:51.060Z,13.19
2019-05-21T12:35:17.477Z,13.29
2019-05-21T12:37:43.614Z,13.37
2019-05-21T12:40:11.253Z,13.33
2019-05-21T12:42:37.409Z,13.37
2019-05-21T12:45:07.087Z,13.39
2019-05-21T12:47:33.460Z,13.41
2019-05-21T12:50:00.998Z,13.40
2019-05-21T12:52:27.324Z,13.45
2019-05-21T12:54:53.623Z,13.46
2019-05-21T12:57:19.841Z,13.50
2019-05-21T12:59:46.254Z,13.44
2019-05-21T13:02:12.525Z,13.46
2019-05-21T13:04:38.753Z,13.54
2019-05-21T13:07:05.279Z,13.60
2019-05-21T13:09:33.136Z,13.61
2019-05-21T13:11:59.404Z,13.52
2019-05-21T13:14:25.712Z,13.65
2019-05-21T13:16:52.001Z,13.68
2019-05-21T13:19:18.293Z,13.68
2019-05-21T13:21:44.629Z,13.64
2019-05-21T13:24:10.763Z,13.64
2019-05-21T13:26:36.922Z,13.68
2019-05-21T13:29:03.239Z,13.64
2019-05-21T13:31:29.616Z,13.72
2019-05-21T13:33:55.666Z,13.72
2019-05-21T13:36:22.484Z,13.71
2019-05-21T13:38:48.709Z,13.68
2019-05-21T13:41:15.065Z,13.78
2019-05-21T13:43:42.384Z,13.63
2019-05-21T13:46:08.638Z,13.70
2019-05-21T13:48:34.977Z,13.69
2019-05-21T13:51:01.588Z,13.69
2019-05-21T13:53:27.886Z,13.67
2019-05-21T13:55:54.045Z,13.55
2019-05-21T13:58:20.376Z,13.64
2019-05-21T14:00:48.687Z,13.56
2019-05-21T14:03:15.171Z,13.57
2019-05-21T14:05:41.503Z,13.62
2019-05-21T14:08:07.896Z,13.67
2019-05-21T14:10:34.459Z,13.68
2019-05-21T14:13:01.244Z,13.79
2019-05-21T14:15:27.684Z,13.82
2019-05-21T14:17:54.133Z,13.87
2019-05-21T14:20:20.580Z,13.92
2019-05-21T14:22:46.892Z,14.00
2019-05-21T14:25:13.485Z,14.02
2019-05-21T14:27:44.879Z,13.95
2019-05-21T14:30:08.604Z,14.00
2019-05-21T14:32:34.965Z,14.16
2019-05-21T14:35:02.442Z,14.08
2019-05-21T14:37:28.712Z,14.22
2019-05-21T14:39:55.078Z,14.35
2019-05-21T14:42:21.436Z,14.48
2019-05-21T14:44:48.041Z,14.45
2019-05-21T14:47:14.130Z,14.42
2019-05-21T14:49:40.407Z,14.33
2019-05-21T14:52:06.798Z,14.29
2019-05-21T14:54:33.230Z,14.31
2019-05-21T14:56:59.466Z,14.40
2019-05-21T14:59:25.733Z,14.44
2019-05-21T15:01:52.098Z,14.49
2019-05-21T15:04:18.548Z,14.38
2019-05-21T15:06:45.225Z,14.38
2019-05-21T15:09:11.439Z,14.35
2019-05-21T15:11:37.645Z,14.38
2019-05-21T15:14:03.969Z,14.33
2019-05-21T15:16:31.233Z,14.34
2019-05-21T15:18:57.495Z,14.52
2019-05-21T15:21:25.716Z,14.53
2019-05-21T15:23:52.573Z,14.63
2019-05-21T15:26:18.946Z,14.65
2019-05-21T15:28:45.305Z,14.65
2019-05-21T15:31:11.574Z,14.68
2019-05-21T15:33:37.882Z,14.73
2019-05-21T15:36:04.127Z,14.75
2019-05-21T15:38:48.592Z,14.80
2019-05-21T15:41:10.119Z,14.90
2019-05-21T15:43:27.087Z,14.75
2019-05-21T15:45:53.480Z,14.76
2019-05-21T15:48:19.882Z,14.72
2019-05-21T15:50:46.293Z,14.75
2019-05-21T15:53:12.809Z,14.74
2019-05-21T15:55:40.186Z,14.78
2019-05-21T15:58:06.668Z,14.81
2019-05-21T16:00:33.676Z,14.82
2019-05-21T16:03:00.411Z,14.87
2019-05-21T16:05:26.670Z,14.93
2019-05-21T16:07:53.329Z,14.86
2019-05-21T16:10:19.750Z,14.91
2019-05-21T16:12:46.057Z,14.89
2019-05-21T16:15:12.528Z,14.92
2019-05-21T16:17:38.753Z,15.01
2019-05-21T16:20:08.717Z,14.91
2019-05-21T16:22:35.128Z,14.95
2019-05-21T16:25:02.325Z,14.91
2019-05-21T16:27:28.571Z,14.90
2019-05-21T16:29:54.897Z,14.89
2019-05-21T16:32:21.165Z,14.81
2019-05-21T16:34:47.530Z,14.85
2019-05-21T16:37:14.505Z,14.84
2019-05-21T16:39:40.911Z,14.85
2019-05-21T16:42:07.354Z,14.85
2019-05-21T16:44:33.609Z,14.86
2019-05-21T16:46:59.858Z,14.86
2019-05-21T16:49:26.355Z,14.86
2019-05-21T16:51:52.828Z,14.86
2019-05-21T16:54:19.068Z,14.88
2019-05-21T16:56:45.417Z,14.84
2019-05-21T16:59:11.718Z,14.83
2019-05-21T17:01:38.339Z,14.89
2019-05-21T17:04:04.650Z,14.95
2019-05-21T17:06:30.920Z,14.91
2019-05-21T17:08:57.207Z,14.88
2019-05-21T17:11:23.544Z,14.88
2019-05-21T17:13:49.901Z,14.91
2019-05-21T17:16:16.179Z,14.85
2019-05-21T17:18:42.523Z,14.86
2019-05-21T17:21:08.888Z,14.85
2019-05-21T17:23:35.343Z,14.92
2019-05-21T17:26:01.813Z,14.86
2019-05-21T17:28:28.200Z,14.85
2019-05-21T17:30:54.641Z,14.84
2019-05-21T17:33:21.150Z,14.87
2019-05-21T17:35:47.399Z,14.80
2019-05-21T17:38:13.829Z,14.75
2019-05-21T17:40:40.304Z,14.78
2019-05-21T17:43:06.858Z,14.73
2019-05-21T17:45:33.338Z,14.64
2019-05-21T17:47:59.635Z,14.61
2019-05-21T17:50:26.085Z,14.59
2019-05-21T17:52:53.154Z,14.64
2019-05-21T17:55:19.425Z,14.48
2019-05-21T17:57:46.135Z,14.46
2019-05-21T18:00:14.451Z,14.34
2019-05-21T18:02:41.211Z,14.35
2019-05-21T18:05:08.618Z,14.39
2019-05-21T18:07:37.772Z,14.29
2019-05-21T18:10:06.598Z,14.32
2019-05-21T18:12:33.652Z,14.31
2019-05-21T18:15:00.705Z,14.30
2019-05-21T18:17:28.561Z,14.22
2019-05-21T18:19:56.486Z,14.19
2019-05-21T18:22:24.134Z,14.18
2019-05-21T18:24:50.575Z,14.03
2019-05-21T18:27:17.066Z,14.01
2019-05-21T18:29:43.233Z,14.00
2019-05-21T18:32:09.579Z,14.01
2019-05-21T18:34:36.850Z,14.02
2019-05-21T18:37:03.443Z,14.03
2019-05-21T18:39:30.874Z,13.99
2019-05-21T18:41:57.221Z,13.98
2019-05-21T18:44:23.559Z,13.96
2019-05-21T18:46:49.924Z,13.93
2019-05-21T18:49:17.170Z,13.98
2019-05-21T18:51:43.516Z,13.99
2019-05-21T18:54:09.742Z,13.92
2019-05-21T18:56:36.231Z,13.87
2019-05-21T18:59:03.207Z,13.82
2019-05-21T19:01:29.858Z,13.79
2019-05-21T19:03:56.119Z,13.81
2019-05-21T19:06:22.581Z,13.82
2019-05-21T19:08:49.101Z,13.83
2019-05-21T19:11:15.665Z,13.78
2019-05-21T19:13:42.109Z,13.75
2019-05-21T19:16:08.386Z,13.75
2019-05-21T19:18:34.747Z,13.71
2019-05-21T19:21:01.026Z,13.64
2019-05-21T19:23:27.560Z,13.54
2019-05-21T19:25:53.993Z,13.54
2019-05-21T19:28:20.286Z,13.54
2019-05-21T19:30:46.585Z,13.52
2019-05-21T19:33:13.412Z,13.49
2019-05-21T19:35:39.977Z,13.48
2019-05-21T19:38:06.361Z,13.43
2019-05-21T19:40:32.777Z,13.38
2019-05-21T19:42:59.119Z,13.42
2019-05-21T19:45:25.542Z,13.42
2019-05-21T19:47:51.947Z,13.46
2019-05-21T19:50:18.713Z,13.29
2019-05-21T19:52:45.084Z,13.29
2019-05-21T19:55:13.211Z,13.25
2019-05-21T19:57:41.538Z,13.25
2019-05-21T20:00:08.448Z,13.23
2019-05-21T20:02:36.197Z,13.24
2019-05-21T20:05:04.462Z,13.24
2019-05-21T20:07:31.232Z,13.24
2019-05-21T20:09:58.568Z,13.24
2019-05-21T20:12:25.188Z,13.27
2019-05-21T20:14:51.519Z,13.23
2019-05-21T20:17:18.603Z,13.20
2019-05-21T20:19:46.889Z,13.18
2019-05-21T20:22:14.888Z,13.18
2019-05-21T20:24:41.217Z,13.13
2019-05-21T20:27:08.076Z,13.07
2019-05-21T20:29:34.462Z,13.07
2019-05-21T20:32:00.880Z,13.11
2019-05-21T20:34:28.023Z,13.17
2019-05-21T20:36:55.094Z,13.12
2019-05-21T20:39:22.363Z,13.12
2019-05-21T20:41:49.036Z,13.15
2019-05-21T20:44:15.355Z,13.09
2019-05-21T20:46:42.194Z,13.06
2019-05-21T20:49:09.462Z,13.00
2019-05-21T20:51:36.696Z,13.08
2019-05-21T20:54:05.349Z,13.05
2019-05-21T20:56:33.122Z,12.98
2019-05-21T20:58:59.466Z,12.91
2019-05-21T21:01:26.657Z,12.91
2019-05-21T21:03:53.006Z,12.95
2019-05-21T21:06:34.178Z,12.89
2019-05-21T21:08:49.160Z,12.89
2019-05-21T21:11:17.456Z,12.90
2019-05-21T21:13:44.381Z,12.90
2019-05-21T21:16:11.248Z,12.99
2019-05-21T21:18:39.114Z,12.99
2019-05-21T21:21:05.712Z,12.99
2019-05-21T21:23:32.149Z,12.99
2019-05-21T21:25:59.221Z,13.00
2019-05-21T21:28:25.753Z,12.98
2019-05-21T21:30:53.109Z,12.85
2019-05-21T21:33:19.566Z,12.92
2019-05-21T21:35:46.045Z,12.83
2019-05-21T21:38:14.191Z,12.87
2019-05-21T21:40:40.908Z,12.83
2019-05-21T21:43:08.131Z,12.90
2019-05-21T21:45:36.495Z,12.85
2019-05-21T21:48:02.837Z,12.82
2019-05-21T21:50:32.155Z,12.88
2019-05-21T21:52:58.659Z,12.88
2019-05-21T21:55:25.002Z,12.95
2019-05-21T21:57:51.264Z,12.99
2019-05-21T22:00:54.542Z,12.95
2019-05-21T22:03:22.725Z,12.95
2019-05-21T22:05:50.036Z,12.84
2019-05-21T22:08:17.156Z,12.84
2019-05-21T22:10:45.783Z,12.95
2019-05-21T22:13:12.536Z,12.85
2019-05-21T22:15:39.361Z,12.85
2019-05-21T22:18:05.575Z,12.86
2019-05-21T22:20:32.023Z,12.82
2019-05-21T22:22:58.460Z,12.81
2019-05-21T22:25:25.027Z,12.89
2019-05-21T22:27:51.230Z,12.89
2019-05-21T22:30:19.143Z,12.85
2019-05-21T22:32:45.464Z,12.82
2019-05-21T22:35:12.616Z,12.75
2019-05-21T22:37:39.001Z,12.79
2019-05-21T22:40:06.057Z,12.74
2019-05-21T22:42:33.007Z,12.74
2019-05-21T22:45:07.915Z,12.78
2019-05-21T22:47:29.190Z,12.78
2019-05-21T22:49:55.518Z,12.80
2019-05-21T22:52:21.771Z,12.79
2019-05-21T22:54:47.900Z,12.68
2019-05-21T22:57:14.227Z,12.68
2019-05-21T22:59:40.457Z,12.66
2019-05-21T23:02:08.672Z,12.55
2019-05-21T23:04:34.812Z,12.59
2019-05-21T23:07:03.831Z,12.62
2019-05-21T23:09:30.305Z,12.61
2019-05-21T23:11:56.691Z,12.68
2019-05-21T23:14:23.046Z,12.59
2019-05-21T23:16:50.274Z,12.56
2019-05-21T23:19:24.119Z,12.55
2019-05-21T23:21:52.025Z,12.52
2019-05-21T23:24:20.461Z,12.56
2019-05-21T23:26:46.777Z,12.63
2019-05-21T23:29:13.154Z,12.50
2019-05-21T23:31:39.445Z,12.50
2019-05-21T23:34:05.642Z,12.50
2019-05-21T23:36:32.098Z,12.52
2019-05-21T23:38:58.813Z,12.53
2019-05-21T23:41:26.196Z,12.54
2019-05-21T23:43:53.022Z,12.57
2019-05-21T23:46:19.550Z,12.55
2019-05-21T23:48:45.958Z,12.57
2019-05-21T23:51:12.164Z,12.51
2019-05-21T23:53:38.389Z,12.60
2019-05-21T23:56:04.626Z,12.54
2019-05-21T23:58:31.552Z,12.49
